sensor_id;sensor_type;location;lat;lon;timestamp;temperature;humidity
52859;DHT22;38721;53.098;6.596;2023-03-23T00:01:10;12.20;99.90
52859;DHT22;38721;53.098;6.596;2023-03-23T00:03:40;12.20;99.90
52859;DHT22;38721;53.098;6.596;2023-03-23T00:06:07;12.20;99.90
52859;DHT22;38721;53.098;6.596;2023-03-23T00:08:37;12.20;99.90
52859;DHT22;38721;53.098;6.596;2023-03-23T00:11:15;12.20;99.90
52859;DHT22;38721;53.098;6.596;2023-03-23T00:13:47;12.20;99.90
52859;DHT22;38721;53.098;6.596;2023-03-23T00:16:16;12.20;99.90
52859;DHT22;38721;53.098;6.596;2023-03-23T00:18:44;12.30;99.90
52859;DHT22;38721;53.098;6.596;2023-03-23T00:21:15;12.30;99.90
52859;DHT22;38721;53.098;6.596;2023-03-23T00:23:40;12.30;99.90
52859;DHT22;38721;53.098;6.596;2023-03-23T00:26:11;12.30;99.90
52859;DHT22;38721;53.098;6.596;2023-03-23T00:28:39;12.30;99.90
52859;DHT22;38721;53.098;6.596;2023-03-23T00:31:07;12.30;99.90
52859;DHT22;38721;53.098;6.596;2023-03-23T00:33:35;12.30;99.90
52859;DHT22;38721;53.098;6.596;2023-03-23T00:36:04;12.30;99.90
52859;DHT22;38721;53.098;6.596;2023-03-23T00:38:31;12.30;99.90
52859;DHT22;38721;53.098;6.596;2023-03-23T00:40:57;12.20;99.90
52859;DHT22;38721;53.098;6.596;2023-03-23T00:43:23;12.20;99.90
52859;DHT22;38721;53.098;6.596;2023-03-23T00:45:50;12.10;99.90
52859;DHT22;38721;53.098;6.596;2023-03-23T00:48:20;12.20;99.90
52859;DHT22;38721;53.098;6.596;2023-03-23T00:50:49;12.10;99.90
52859;DHT22;38721;53.098;6.596;2023-03-23T00:53:16;12.00;99.90
52859;DHT22;38721;53.098;6.596;2023-03-23T00:55:42;12.10;99.90
52859;DHT22;38721;53.098;6.596;2023-03-23T00:58:09;12.00;99.90
52859;DHT22;38721;53.098;6.596;2023-03-23T01:00:35;11.80;99.90
52859;DHT22;38721;53.098;6.596;2023-03-23T01:03:01;11.80;99.90
52859;DHT22;38721;53.098;6.596;2023-03-23T01:05:27;11.90;99.90
52859;DHT22;38721;53.098;6.596;2023-03-23T01:07:58;11.90;99.90
52859;DHT22;38721;53.098;6.596;2023-03-23T01:10:24;11.80;99.90
52859;DHT22;38721;53.098;6.596;2023-03-23T01:12:52;11.80;99.90
52859;DHT22;38721;53.098;6.596;2023-03-23T01:15:21;11.80;99.90
52859;DHT22;38721;53.098;6.596;2023-03-23T01:17:47;11.80;99.90
52859;DHT22;38721;53.098;6.596;2023-03-23T01:20:16;11.80;99.90
52859;DHT22;38721;53.098;6.596;2023-03-23T01:22:42;11.80;99.90
52859;DHT22;38721;53.098;6.596;2023-03-23T01:25:10;11.80;99.90
52859;DHT22;38721;53.098;6.596;2023-03-23T01:27:36;11.90;99.90
52859;DHT22;38721;53.098;6.596;2023-03-23T01:30:03;11.90;99.90
52859;DHT22;38721;53.098;6.596;2023-03-23T01:32:29;11.80;99.90
52859;DHT22;38721;53.098;6.596;2023-03-23T01:34:55;11.80;99.90
52859;DHT22;38721;53.098;6.596;2023-03-23T01:37:21;11.80;99.90
52859;DHT22;38721;53.098;6.596;2023-03-23T01:39:53;11.70;99.90
52859;DHT22;38721;53.098;6.596;2023-03-23T01:42:24;11.70;99.90
52859;DHT22;38721;53.098;6.596;2023-03-23T01:47:17;11.70;99.90
52859;DHT22;38721;53.098;6.596;2023-03-23T01:49:46;11.70;99.90
52859;DHT22;38721;53.098;6.596;2023-03-23T01:52:16;11.80;99.90
52859;DHT22;38721;53.098;6.596;2023-03-23T01:54:45;11.80;99.90
52859;DHT22;38721;53.098;6.596;2023-03-23T01:57:15;11.70;99.90
52859;DHT22;38721;53.098;6.596;2023-03-23T01:59:43;11.80;99.90
52859;DHT22;38721;53.098;6.596;2023-03-23T02:02:11;11.80;99.90
52859;DHT22;38721;53.098;6.596;2023-03-23T02:04:38;11.70;99.90
52859;DHT22;38721;53.098;6.596;2023-03-23T02:07:04;11.70;99.90
52859;DHT22;38721;53.098;6.596;2023-03-23T02:09:30;11.80;99.90
52859;DHT22;38721;53.098;6.596;2023-03-23T02:11:56;11.80;99.90
52859;DHT22;38721;53.098;6.596;2023-03-23T02:14:24;11.70;99.90
52859;DHT22;38721;53.098;6.596;2023-03-23T02:20:34;11.70;99.90
52859;DHT22;38721;53.098;6.596;2023-03-23T02:31:31;11.70;99.90
52859;DHT22;38721;53.098;6.596;2023-03-23T02:41:56;11.60;99.90
52859;DHT22;38721;53.098;6.596;2023-03-23T02:44:24;11.60;99.90
52859;DHT22;38721;53.098;6.596;2023-03-23T02:46:56;11.50;99.90
52859;DHT22;38721;53.098;6.596;2023-03-23T02:49:24;11.50;99.90
52859;DHT22;38721;53.098;6.596;2023-03-23T02:51:51;11.50;99.90
52859;DHT22;38721;53.098;6.596;2023-03-23T02:54:20;11.50;99.90
52859;DHT22;38721;53.098;6.596;2023-03-23T02:56:48;11.50;99.90
52859;DHT22;38721;53.098;6.596;2023-03-23T02:59:16;11.50;99.90
52859;DHT22;38721;53.098;6.596;2023-03-23T03:04:11;11.40;99.90
52859;DHT22;38721;53.098;6.596;2023-03-23T03:12:53;11.50;99.90
52859;DHT22;38721;53.098;6.596;2023-03-23T03:15:36;11.50;99.90
52859;DHT22;38721;53.098;6.596;2023-03-23T03:18:20;11.50;99.90
52859;DHT22;38721;53.098;6.596;2023-03-23T03:20:51;11.50;99.90
52859;DHT22;38721;53.098;6.596;2023-03-23T03:23:20;11.40;99.90
52859;DHT22;38721;53.098;6.596;2023-03-23T03:25:47;11.50;99.90
52859;DHT22;38721;53.098;6.596;2023-03-23T03:28:19;11.40;99.90
52859;DHT22;38721;53.098;6.596;2023-03-23T03:30:54;11.40;99.90
52859;DHT22;38721;53.098;6.596;2023-03-23T03:33:22;11.40;99.90
52859;DHT22;38721;53.098;6.596;2023-03-23T03:35:54;11.40;99.90
52859;DHT22;38721;53.098;6.596;2023-03-23T03:38:21;11.40;99.90
52859;DHT22;38721;53.098;6.596;2023-03-23T03:40:47;11.40;99.90
52859;DHT22;38721;53.098;6.596;2023-03-23T03:43:12;11.40;99.90
52859;DHT22;38721;53.098;6.596;2023-03-23T03:45:38;11.40;99.90
52859;DHT22;38721;53.098;6.596;2023-03-23T03:48:04;11.40;99.90
52859;DHT22;38721;53.098;6.596;2023-03-23T03:50:33;11.40;99.90
52859;DHT22;38721;53.098;6.596;2023-03-23T03:52:59;11.40;99.90
52859;DHT22;38721;53.098;6.596;2023-03-23T03:55:25;11.40;99.90
52859;DHT22;38721;53.098;6.596;2023-03-23T03:57:56;11.40;99.90
52859;DHT22;38721;53.098;6.596;2023-03-23T04:00:22;11.40;99.90
52859;DHT22;38721;53.098;6.596;2023-03-23T04:02:50;11.30;99.90
52859;DHT22;38721;53.098;6.596;2023-03-23T04:05:21;11.30;99.90
52859;DHT22;38721;53.098;6.596;2023-03-23T04:07:48;11.30;99.90
52859;DHT22;38721;53.098;6.596;2023-03-23T04:10:18;11.40;99.90
52859;DHT22;38721;53.098;6.596;2023-03-23T04:12:48;11.40;99.90
52859;DHT22;38721;53.098;6.596;2023-03-23T04:15:14;11.30;99.90
52859;DHT22;38721;53.098;6.596;2023-03-23T04:17:40;11.40;99.90
52859;DHT22;38721;53.098;6.596;2023-03-23T04:20:06;11.40;99.90
52859;DHT22;38721;53.098;6.596;2023-03-23T04:22:34;11.40;99.90
52859;DHT22;38721;53.098;6.596;2023-03-23T04:25:01;11.40;99.90
52859;DHT22;38721;53.098;6.596;2023-03-23T04:27:29;11.50;99.90
52859;DHT22;38721;53.098;6.596;2023-03-23T04:29:56;11.50;99.90
52859;DHT22;38721;53.098;6.596;2023-03-23T04:32:24;11.70;99.90
52859;DHT22;38721;53.098;6.596;2023-03-23T04:34:50;11.50;99.90
52859;DHT22;38721;53.098;6.596;2023-03-23T04:37:17;11.40;99.90
52859;DHT22;38721;53.098;6.596;2023-03-23T04:39:43;11.60;99.90
52859;DHT22;38721;53.098;6.596;2023-03-23T04:42:11;11.60;99.90
52859;DHT22;38721;53.098;6.596;2023-03-23T04:44:36;11.60;99.90
52859;DHT22;38721;53.098;6.596;2023-03-23T04:47:02;11.60;99.90
52859;DHT22;38721;53.098;6.596;2023-03-23T04:49:28;11.60;99.90
52859;DHT22;38721;53.098;6.596;2023-03-23T04:51:55;11.50;99.90
52859;DHT22;38721;53.098;6.596;2023-03-23T04:54:22;11.50;99.90
52859;DHT22;38721;53.098;6.596;2023-03-23T04:56:48;11.50;99.90
52859;DHT22;38721;53.098;6.596;2023-03-23T04:59:13;11.50;99.90
52859;DHT22;38721;53.098;6.596;2023-03-23T05:01:40;11.40;99.90
52859;DHT22;38721;53.098;6.596;2023-03-23T05:04:10;11.40;99.90
52859;DHT22;38721;53.098;6.596;2023-03-23T05:06:38;11.30;99.90
52859;DHT22;38721;53.098;6.596;2023-03-23T05:09:06;11.30;99.90
52859;DHT22;38721;53.098;6.596;2023-03-23T05:11:36;11.10;99.90
52859;DHT22;38721;53.098;6.596;2023-03-23T05:14:03;11.10;99.90
52859;DHT22;38721;53.098;6.596;2023-03-23T05:16:30;11.00;99.90
52859;DHT22;38721;53.098;6.596;2023-03-23T05:18:56;11.10;99.90
52859;DHT22;38721;53.098;6.596;2023-03-23T05:21:23;11.10;99.90
52859;DHT22;38721;53.098;6.596;2023-03-23T05:23:48;11.10;99.90
52859;DHT22;38721;53.098;6.596;2023-03-23T05:26:23;11.00;99.90
52859;DHT22;38721;53.098;6.596;2023-03-23T05:28:53;11.00;99.90
52859;DHT22;38721;53.098;6.596;2023-03-23T05:31:20;11.00;99.90
52859;DHT22;38721;53.098;6.596;2023-03-23T05:33:47;11.00;99.90
52859;DHT22;38721;53.098;6.596;2023-03-23T05:36:15;11.00;99.90
52859;DHT22;38721;53.098;6.596;2023-03-23T05:38:41;11.00;99.90
52859;DHT22;38721;53.098;6.596;2023-03-23T05:41:14;11.00;99.90
52859;DHT22;38721;53.098;6.596;2023-03-23T05:43:41;10.90;99.90
52859;DHT22;38721;53.098;6.596;2023-03-23T05:46:06;10.90;99.90
52859;DHT22;38721;53.098;6.596;2023-03-23T05:48:33;10.90;99.90
52859;DHT22;38721;53.098;6.596;2023-03-23T05:50:59;10.90;99.90
52859;DHT22;38721;53.098;6.596;2023-03-23T05:53:28;10.90;99.90
52859;DHT22;38721;53.098;6.596;2023-03-23T05:55:58;10.90;99.90
52859;DHT22;38721;53.098;6.596;2023-03-23T05:58:25;10.90;99.90
52859;DHT22;38721;53.098;6.596;2023-03-23T06:00:51;10.90;99.90
52859;DHT22;38721;53.098;6.596;2023-03-23T06:03:22;11.00;99.90
52859;DHT22;38721;53.098;6.596;2023-03-23T06:05:48;11.00;99.90
52859;DHT22;38721;53.098;6.596;2023-03-23T06:08:14;11.00;99.90
52859;DHT22;38721;53.098;6.596;2023-03-23T06:10:40;11.00;99.90
52859;DHT22;38721;53.098;6.596;2023-03-23T06:13:05;11.00;99.90
52859;DHT22;38721;53.098;6.596;2023-03-23T06:15:32;11.00;99.90
52859;DHT22;38721;53.098;6.596;2023-03-23T06:18:16;11.10;99.90
52859;DHT22;38721;53.098;6.596;2023-03-23T06:20:42;11.10;99.90
52859;DHT22;38721;53.098;6.596;2023-03-23T06:23:09;11.10;99.90
52859;DHT22;38721;53.098;6.596;2023-03-23T06:25:35;11.10;99.90
52859;DHT22;38721;53.098;6.596;2023-03-23T06:28:01;11.10;99.90
52859;DHT22;38721;53.098;6.596;2023-03-23T06:30:27;11.10;99.90
52859;DHT22;38721;53.098;6.596;2023-03-23T06:32:54;11.20;99.90
52859;DHT22;38721;53.098;6.596;2023-03-23T06:35:21;11.20;99.90
52859;DHT22;38721;53.098;6.596;2023-03-23T06:37:46;11.20;99.90
52859;DHT22;38721;53.098;6.596;2023-03-23T06:40:12;11.20;99.90
52859;DHT22;38721;53.098;6.596;2023-03-23T06:42:38;11.10;99.90
52859;DHT22;38721;53.098;6.596;2023-03-23T06:45:04;11.10;99.90
52859;DHT22;38721;53.098;6.596;2023-03-23T06:47:30;11.10;99.90
52859;DHT22;38721;53.098;6.596;2023-03-23T06:49:59;11.10;99.90
52859;DHT22;38721;53.098;6.596;2023-03-23T06:52:25;11.20;99.90
52859;DHT22;38721;53.098;6.596;2023-03-23T06:54:52;11.30;99.90
52859;DHT22;38721;53.098;6.596;2023-03-23T06:57:19;11.30;99.90
52859;DHT22;38721;53.098;6.596;2023-03-23T06:59:45;11.30;99.90
52859;DHT22;38721;53.098;6.596;2023-03-23T07:02:12;11.30;99.90
52859;DHT22;38721;53.098;6.596;2023-03-23T07:04:39;11.30;99.90
52859;DHT22;38721;53.098;6.596;2023-03-23T07:07:08;11.30;99.90
52859;DHT22;38721;53.098;6.596;2023-03-23T07:09:34;11.20;99.90
52859;DHT22;38721;53.098;6.596;2023-03-23T07:12:00;11.30;99.90
52859;DHT22;38721;53.098;6.596;2023-03-23T07:14:26;11.20;99.90
52859;DHT22;38721;53.098;6.596;2023-03-23T07:16:52;11.20;99.90
52859;DHT22;38721;53.098;6.596;2023-03-23T07:19:19;11.20;99.90
52859;DHT22;38721;53.098;6.596;2023-03-23T07:21:44;11.20;99.90
52859;DHT22;38721;53.098;6.596;2023-03-23T07:24:12;11.20;99.90
52859;DHT22;38721;53.098;6.596;2023-03-23T07:26:40;11.20;99.90
52859;DHT22;38721;53.098;6.596;2023-03-23T07:29:07;11.10;99.90
52859;DHT22;38721;53.098;6.596;2023-03-23T07:31:33;11.10;99.90
52859;DHT22;38721;53.098;6.596;2023-03-23T07:33:59;11.20;99.90
52859;DHT22;38721;53.098;6.596;2023-03-23T07:36:26;11.30;99.90
52859;DHT22;38721;53.098;6.596;2023-03-23T07:38:51;11.30;99.90
52859;DHT22;38721;53.098;6.596;2023-03-23T07:41:17;11.30;99.90
52859;DHT22;38721;53.098;6.596;2023-03-23T07:43:43;11.40;99.90
52859;DHT22;38721;53.098;6.596;2023-03-23T07:46:08;11.40;99.90
52859;DHT22;38721;53.098;6.596;2023-03-23T07:48:34;11.40;99.90
52859;DHT22;38721;53.098;6.596;2023-03-23T07:51:00;11.40;99.90
52859;DHT22;38721;53.098;6.596;2023-03-23T07:53:25;11.40;99.90
52859;DHT22;38721;53.098;6.596;2023-03-23T07:55:51;11.40;99.90
52859;DHT22;38721;53.098;6.596;2023-03-23T07:58:18;11.60;99.90
52859;DHT22;38721;53.098;6.596;2023-03-23T08:00:46;11.60;99.90
52859;DHT22;38721;53.098;6.596;2023-03-23T08:03:14;11.60;99.90
52859;DHT22;38721;53.098;6.596;2023-03-23T08:05:39;11.60;99.90
52859;DHT22;38721;53.098;6.596;2023-03-23T08:08:08;11.60;99.90
52859;DHT22;38721;53.098;6.596;2023-03-23T08:10:37;11.60;99.90
52859;DHT22;38721;53.098;6.596;2023-03-23T08:13:03;11.60;99.90
52859;DHT22;38721;53.098;6.596;2023-03-23T08:15:29;11.60;99.90
52859;DHT22;38721;53.098;6.596;2023-03-23T08:17:55;11.70;99.90
52859;DHT22;38721;53.098;6.596;2023-03-23T08:20:21;11.60;99.90
52859;DHT22;38721;53.098;6.596;2023-03-23T08:22:55;11.60;99.90
52859;DHT22;38721;53.098;6.596;2023-03-23T08:25:23;11.70;99.90
52859;DHT22;38721;53.098;6.596;2023-03-23T08:27:50;11.70;99.90
52859;DHT22;38721;53.098;6.596;2023-03-23T08:30:18;11.80;99.90
52859;DHT22;38721;53.098;6.596;2023-03-23T08:32:45;11.80;99.90
52859;DHT22;38721;53.098;6.596;2023-03-23T08:35:12;11.80;99.90
52859;DHT22;38721;53.098;6.596;2023-03-23T08:37:38;11.80;99.90
52859;DHT22;38721;53.098;6.596;2023-03-23T08:40:05;11.80;99.90
52859;DHT22;38721;53.098;6.596;2023-03-23T08:42:36;11.70;99.90
52859;DHT22;38721;53.098;6.596;2023-03-23T08:45:07;11.70;99.90
52859;DHT22;38721;53.098;6.596;2023-03-23T08:47:34;11.60;99.90
52859;DHT22;38721;53.098;6.596;2023-03-23T08:50:02;11.60;99.90
52859;DHT22;38721;53.098;6.596;2023-03-23T08:52:28;11.70;99.90
52859;DHT22;38721;53.098;6.596;2023-03-23T08:54:55;11.80;99.90
52859;DHT22;38721;53.098;6.596;2023-03-23T08:57:23;12.20;99.90
52859;DHT22;38721;53.098;6.596;2023-03-23T08:59:48;12.40;99.90
52859;DHT22;38721;53.098;6.596;2023-03-23T09:02:18;12.30;99.90
52859;DHT22;38721;53.098;6.596;2023-03-23T09:04:46;12.40;99.90
52859;DHT22;38721;53.098;6.596;2023-03-23T09:07:12;12.50;99.90
52859;DHT22;38721;53.098;6.596;2023-03-23T09:09:40;12.40;99.90
52859;DHT22;38721;53.098;6.596;2023-03-23T09:12:09;12.70;99.90
52859;DHT22;38721;53.098;6.596;2023-03-23T09:14:35;12.90;99.90
52859;DHT22;38721;53.098;6.596;2023-03-23T09:17:02;12.80;99.90
52859;DHT22;38721;53.098;6.596;2023-03-23T09:19:29;12.70;99.90
52859;DHT22;38721;53.098;6.596;2023-03-23T09:21:55;12.60;99.90
52859;DHT22;38721;53.098;6.596;2023-03-23T09:24:20;12.50;99.90
52859;DHT22;38721;53.098;6.596;2023-03-23T09:26:47;12.50;99.90
52859;DHT22;38721;53.098;6.596;2023-03-23T09:29:13;12.50;99.90
52859;DHT22;38721;53.098;6.596;2023-03-23T09:31:39;12.70;99.90
52859;DHT22;38721;53.098;6.596;2023-03-23T09:34:08;12.80;99.90
52859;DHT22;38721;53.098;6.596;2023-03-23T09:36:36;12.50;99.90
52859;DHT22;38721;53.098;6.596;2023-03-23T09:39:08;12.80;99.90
52859;DHT22;38721;53.098;6.596;2023-03-23T09:41:59;13.00;99.90
52859;DHT22;38721;53.098;6.596;2023-03-23T09:44:57;13.00;99.90
52859;DHT22;38721;53.098;6.596;2023-03-23T09:52:43;13.10;99.90
52859;DHT22;38721;53.098;6.596;2023-03-23T09:55:15;13.20;99.90
52859;DHT22;38721;53.098;6.596;2023-03-23T09:58:39;13.50;99.90
52859;DHT22;38721;53.098;6.596;2023-03-23T10:00:48;13.40;99.90
52859;DHT22;38721;53.098;6.596;2023-03-23T10:03:19;13.60;99.90
52859;DHT22;38721;53.098;6.596;2023-03-23T10:05:51;13.80;99.90
52859;DHT22;38721;53.098;6.596;2023-03-23T10:08:21;13.70;99.90
52859;DHT22;38721;53.098;6.596;2023-03-23T10:16:26;13.70;99.90
52859;DHT22;38721;53.098;6.596;2023-03-23T10:19:12;13.90;99.90
52859;DHT22;38721;53.098;6.596;2023-03-23T10:21:52;13.90;99.90
52859;DHT22;38721;53.098;6.596;2023-03-23T10:24:33;13.60;99.90
52859;DHT22;38721;53.098;6.596;2023-03-23T10:27:10;13.60;99.90
52859;DHT22;38721;53.098;6.596;2023-03-23T10:30:02;13.40;99.90
52859;DHT22;38721;53.098;6.596;2023-03-23T10:32:52;13.20;99.90
52859;DHT22;38721;53.098;6.596;2023-03-23T10:35:24;12.80;99.90
52859;DHT22;38721;53.098;6.596;2023-03-23T10:38:04;12.90;99.90
52859;DHT22;38721;53.098;6.596;2023-03-23T10:40:31;13.00;99.90
52859;DHT22;38721;53.098;6.596;2023-03-23T10:42:59;13.40;99.90
52859;DHT22;38721;53.098;6.596;2023-03-23T10:45:28;13.20;99.90
52859;DHT22;38721;53.098;6.596;2023-03-23T10:48:17;13.50;99.90
52859;DHT22;38721;53.098;6.596;2023-03-23T10:50:48;13.20;99.90
52859;DHT22;38721;53.098;6.596;2023-03-23T10:53:28;13.50;99.90
52859;DHT22;38721;53.098;6.596;2023-03-23T10:55:58;13.30;99.90
52859;DHT22;38721;53.098;6.596;2023-03-23T10:58:35;13.20;99.90
52859;DHT22;38721;53.098;6.596;2023-03-23T11:01:03;13.10;99.90
52859;DHT22;38721;53.098;6.596;2023-03-23T11:06:05;12.90;99.90
52859;DHT22;38721;53.098;6.596;2023-03-23T11:08:47;13.20;99.90
52859;DHT22;38721;53.098;6.596;2023-03-23T11:11:20;13.80;99.90
52859;DHT22;38721;53.098;6.596;2023-03-23T11:13:55;14.40;99.90
52859;DHT22;38721;53.098;6.596;2023-03-23T11:16:25;14.50;99.90
52859;DHT22;38721;53.098;6.596;2023-03-23T11:18:52;14.60;99.90
52859;DHT22;38721;53.098;6.596;2023-03-23T11:21:20;14.30;99.90
52859;DHT22;38721;53.098;6.596;2023-03-23T11:23:53;14.10;99.90
52859;DHT22;38721;53.098;6.596;2023-03-23T11:26:26;13.70;99.90
52859;DHT22;38721;53.098;6.596;2023-03-23T11:29:06;13.80;99.90
52859;DHT22;38721;53.098;6.596;2023-03-23T11:31:43;13.70;99.90
52859;DHT22;38721;53.098;6.596;2023-03-23T11:34:13;13.70;99.90
52859;DHT22;38721;53.098;6.596;2023-03-23T11:39:26;13.60;99.90
52859;DHT22;38721;53.098;6.596;2023-03-23T11:41:54;13.90;99.90
52859;DHT22;38721;53.098;6.596;2023-03-23T11:44:22;13.80;99.90
52859;DHT22;38721;53.098;6.596;2023-03-23T11:47:08;14.10;99.90
52859;DHT22;38721;53.098;6.596;2023-03-23T11:49:49;14.70;99.90
52859;DHT22;38721;53.098;6.596;2023-03-23T11:55:07;14.80;99.90
52859;DHT22;38721;53.098;6.596;2023-03-23T11:57:35;15.20;99.90
52859;DHT22;38721;53.098;6.596;2023-03-23T12:00:05;15.10;99.90
52859;DHT22;38721;53.098;6.596;2023-03-23T12:02:42;14.70;99.90
52859;DHT22;38721;53.098;6.596;2023-03-23T12:14:31;14.90;99.90
52859;DHT22;38721;53.098;6.596;2023-03-23T12:16:45;15.30;99.90
52859;DHT22;38721;53.098;6.596;2023-03-23T12:19:25;15.60;99.90
52859;DHT22;38721;53.098;6.596;2023-03-23T12:22:36;15.40;99.90
52859;DHT22;38721;53.098;6.596;2023-03-23T12:28:15;14.70;99.90
52859;DHT22;38721;53.098;6.596;2023-03-23T12:36:37;15.20;99.90
52859;DHT22;38721;53.098;6.596;2023-03-23T12:45:45;15.40;99.90
52859;DHT22;38721;53.098;6.596;2023-03-23T12:48:23;15.80;99.90
52859;DHT22;38721;53.098;6.596;2023-03-23T12:51:29;15.20;99.90
52859;DHT22;38721;53.098;6.596;2023-03-23T12:54:11;15.50;99.90
52859;DHT22;38721;53.098;6.596;2023-03-23T12:57:04;15.70;99.90
52859;DHT22;38721;53.098;6.596;2023-03-23T12:59:39;15.30;99.90
52859;DHT22;38721;53.098;6.596;2023-03-23T13:02:20;15.80;99.90
52859;DHT22;38721;53.098;6.596;2023-03-23T13:07:58;14.60;99.90
52859;DHT22;38721;53.098;6.596;2023-03-23T13:10:29;14.50;99.90
52859;DHT22;38721;53.098;6.596;2023-03-23T13:13:00;14.40;99.90
52859;DHT22;38721;53.098;6.596;2023-03-23T13:15:48;14.40;99.90
52859;DHT22;38721;53.098;6.596;2023-03-23T13:18:21;14.50;99.90
52859;DHT22;38721;53.098;6.596;2023-03-23T13:23:45;14.30;99.90
52859;DHT22;38721;53.098;6.596;2023-03-23T13:26:20;14.90;99.90
52859;DHT22;38721;53.098;6.596;2023-03-23T13:31:30;14.70;99.90
52859;DHT22;38721;53.098;6.596;2023-03-23T13:34:12;15.10;99.90
52859;DHT22;38721;53.098;6.596;2023-03-23T13:39:34;14.30;99.90
52859;DHT22;38721;53.098;6.596;2023-03-23T13:47:34;14.40;99.90
52859;DHT22;38721;53.098;6.596;2023-03-23T13:57:55;15.40;99.90
52859;DHT22;38721;53.098;6.596;2023-03-23T14:05:37;15.20;99.90
52859;DHT22;38721;53.098;6.596;2023-03-23T14:13:21;14.60;99.90
52859;DHT22;38721;53.098;6.596;2023-03-23T14:16:02;14.50;99.90
52859;DHT22;38721;53.098;6.596;2023-03-23T14:18:41;14.40;99.90
52859;DHT22;38721;53.098;6.596;2023-03-23T14:21:15;14.30;99.90
52859;DHT22;38721;53.098;6.596;2023-03-23T14:23:42;14.60;99.90
52859;DHT22;38721;53.098;6.596;2023-03-23T14:26:16;15.80;99.90
52859;DHT22;38721;53.098;6.596;2023-03-23T14:28:45;16.80;99.90
52859;DHT22;38721;53.098;6.596;2023-03-23T14:31:18;16.40;99.90
52859;DHT22;38721;53.098;6.596;2023-03-23T14:33:45;16.70;99.90
52859;DHT22;38721;53.098;6.596;2023-03-23T14:36:11;16.40;99.90
52859;DHT22;38721;53.098;6.596;2023-03-23T14:38:37;17.40;99.90
52859;DHT22;38721;53.098;6.596;2023-03-23T14:41:05;18.10;99.90
52859;DHT22;38721;53.098;6.596;2023-03-23T14:43:33;17.40;99.90
52859;DHT22;38721;53.098;6.596;2023-03-23T14:46:06;17.40;99.90
52859;DHT22;38721;53.098;6.596;2023-03-23T14:48:32;16.50;99.90
52859;DHT22;38721;53.098;6.596;2023-03-23T14:50:59;16.30;33.40
52859;DHT22;38721;53.098;6.596;2023-03-23T14:53:39;15.60;1.00
52859;DHT22;38721;53.098;6.596;2023-03-23T14:56:13;16.10;1.00
52859;DHT22;38721;53.098;6.596;2023-03-23T14:58:44;15.50;99.90
52859;DHT22;38721;53.098;6.596;2023-03-23T15:01:28;15.70;1.00
52859;DHT22;38721;53.098;6.596;2023-03-23T15:03:57;16.40;1.00
52859;DHT22;38721;53.098;6.596;2023-03-23T15:06:28;16.70;94.70
52859;DHT22;38721;53.098;6.596;2023-03-23T15:08:58;17.00;1.00
52859;DHT22;38721;53.098;6.596;2023-03-23T15:11:31;17.50;1.00
52859;DHT22;38721;53.098;6.596;2023-03-23T15:14:00;17.60;99.90
52859;DHT22;38721;53.098;6.596;2023-03-23T15:16:33;17.40;99.90
52859;DHT22;38721;53.098;6.596;2023-03-23T15:19:05;18.30;1.00
52859;DHT22;38721;53.098;6.596;2023-03-23T15:21:46;19.60;99.90
52859;DHT22;38721;53.098;6.596;2023-03-23T15:24:37;18.80;1.00
52859;DHT22;38721;53.098;6.596;2023-03-23T15:29:31;19.00;52.10
52859;DHT22;38721;53.098;6.596;2023-03-23T15:31:57;18.80;99.90
52859;DHT22;38721;53.098;6.596;2023-03-23T15:34:32;18.90;99.90
52859;DHT22;38721;53.098;6.596;2023-03-23T15:37:13;18.80;23.50
52859;DHT22;38721;53.098;6.596;2023-03-23T15:39:41;19.90;99.90
52859;DHT22;38721;53.098;6.596;2023-03-23T15:42:27;19.70;98.60
52859;DHT22;38721;53.098;6.596;2023-03-23T15:52:36;19.30;99.90
52859;DHT22;38721;53.098;6.596;2023-03-23T15:55:02;19.90;99.90
52859;DHT22;38721;53.098;6.596;2023-03-23T15:57:28;19.60;81.40
52859;DHT22;38721;53.098;6.596;2023-03-23T15:59:54;20.30;99.90
52859;DHT22;38721;53.098;6.596;2023-03-23T16:02:22;19.30;99.90
52859;DHT22;38721;53.098;6.596;2023-03-23T16:04:49;19.30;99.90
52859;DHT22;38721;53.098;6.596;2023-03-23T16:07:22;19.20;99.90
52859;DHT22;38721;53.098;6.596;2023-03-23T16:09:48;18.70;34.60
52859;DHT22;38721;53.098;6.596;2023-03-23T16:12:14;18.20;99.90
52859;DHT22;38721;53.098;6.596;2023-03-23T16:14:40;18.10;99.90
52859;DHT22;38721;53.098;6.596;2023-03-23T16:17:07;17.90;99.90
52859;DHT22;38721;53.098;6.596;2023-03-23T16:19:37;16.80;99.90
52859;DHT22;38721;53.098;6.596;2023-03-23T16:22:02;16.40;99.90
52859;DHT22;38721;53.098;6.596;2023-03-23T16:24:31;16.00;56.20
52859;DHT22;38721;53.098;6.596;2023-03-23T16:26:56;16.00;99.90
52859;DHT22;38721;53.098;6.596;2023-03-23T16:29:22;16.10;99.90
52859;DHT22;38721;53.098;6.596;2023-03-23T16:31:47;16.40;99.90
52859;DHT22;38721;53.098;6.596;2023-03-23T16:34:16;16.40;99.90
52859;DHT22;38721;53.098;6.596;2023-03-23T16:36:42;16.40;99.90
52859;DHT22;38721;53.098;6.596;2023-03-23T16:39:12;15.90;99.90
52859;DHT22;38721;53.098;6.596;2023-03-23T16:41:37;15.60;99.90
52859;DHT22;38721;53.098;6.596;2023-03-23T16:44:03;15.00;99.90
52859;DHT22;38721;53.098;6.596;2023-03-23T16:46:29;14.80;1.00
52859;DHT22;38721;53.098;6.596;2023-03-23T16:48:55;14.70;99.90
52859;DHT22;38721;53.098;6.596;2023-03-23T16:51:20;14.60;99.90
52859;DHT22;38721;53.098;6.596;2023-03-23T16:53:46;14.70;99.90
52859;DHT22;38721;53.098;6.596;2023-03-23T16:56:12;14.70;1.00
52859;DHT22;38721;53.098;6.596;2023-03-23T16:58:37;14.50;99.90
52859;DHT22;38721;53.098;6.596;2023-03-23T17:01:04;14.30;1.00
52859;DHT22;38721;53.098;6.596;2023-03-23T17:03:32;14.20;99.90
52859;DHT22;38721;53.098;6.596;2023-03-23T17:06:01;13.90;99.90
52859;DHT22;38721;53.098;6.596;2023-03-23T17:08:27;13.80;2.00
52859;DHT22;38721;53.098;6.596;2023-03-23T17:10:53;13.70;99.90
52859;DHT22;38721;53.098;6.596;2023-03-23T17:13:18;13.60;99.90
52859;DHT22;38721;53.098;6.596;2023-03-23T17:15:45;13.60;4.70
52859;DHT22;38721;53.098;6.596;2023-03-23T17:18:11;13.50;99.90
52859;DHT22;38721;53.098;6.596;2023-03-23T17:20:37;13.50;99.90
52859;DHT22;38721;53.098;6.596;2023-03-23T17:23:03;13.40;99.90
52859;DHT22;38721;53.098;6.596;2023-03-23T17:25:29;13.30;99.90
52859;DHT22;38721;53.098;6.596;2023-03-23T17:27:55;13.30;1.00
52859;DHT22;38721;53.098;6.596;2023-03-23T17:30:21;13.20;1.00
52859;DHT22;38721;53.098;6.596;2023-03-23T17:32:47;13.10;46.60
52859;DHT22;38721;53.098;6.596;2023-03-23T17:35:13;13.10;99.90
52859;DHT22;38721;53.098;6.596;2023-03-23T17:37:40;13.00;99.90
52859;DHT22;38721;53.098;6.596;2023-03-23T17:40:10;13.00;99.90
52859;DHT22;38721;53.098;6.596;2023-03-23T17:42:36;12.90;99.90
52859;DHT22;38721;53.098;6.596;2023-03-23T17:45:07;12.80;99.90
52859;DHT22;38721;53.098;6.596;2023-03-23T17:47:33;12.70;99.90